createdAt,value
2017-10-20T00:02:08.759Z,100795
2017-10-20T00:04:35.269Z,100800
2017-10-20T00:07:01.543Z,100803
2017-10-20T00:09:27.809Z,100797
2017-10-20T00:11:54.866Z,100795
2017-10-20T00:14:21.149Z,100796
2017-10-20T00:16:47.422Z,100797
2017-10-20T00:19:13.713Z,100803
2017-10-20T00:21:40.024Z,100798
2017-10-20T00:24:06.318Z,100803
2017-10-20T00:26:32.580Z,100796
2017-10-20T00:28:58.863Z,100800
2017-10-20T00:31:25.961Z,100801
2017-10-20T00:33:52.241Z,100805
2017-10-20T00:36:19.282Z,100805
2017-10-20T00:38:46.354Z,100807
2017-10-20T00:41:12.666Z,100805
2017-10-20T00:43:39.692Z,100815
2017-10-20T00:46:06.736Z,100804
2017-10-20T00:48:33.065Z,100802
2017-10-20T00:50:59.366Z,100803
2017-10-20T00:53:25.736Z,100798
2017-10-20T00:55:52.794Z,100801
2017-10-20T00:58:19.845Z,100787
2017-10-20T01:00:46.918Z,100777
2017-10-20T01:03:13.225Z,100775
2017-10-20T01:05:39.473Z,100772
2017-10-20T01:08:05.798Z,100767
2017-10-20T01:10:32.126Z,100763
2017-10-20T01:12:58.434Z,100777
2017-10-20T01:15:25.493Z,100775
2017-10-20T01:17:51.825Z,100795
2017-10-20T01:20:18.164Z,100783
2017-10-20T01:22:44.495Z,100789
2017-10-20T01:25:10.817Z,100772
2017-10-20T01:27:37.155Z,100776
2017-10-20T01:30:03.462Z,100782
2017-10-20T01:32:30.534Z,100783
2017-10-20T01:34:57.072Z,100782
2017-10-20T01:37:23.373Z,100777
2017-10-20T01:39:50.442Z,100780
2017-10-20T01:42:16.768Z,100788
2017-10-20T01:44:43.078Z,100775
2017-10-20T01:47:10.141Z,100770
2017-10-20T01:49:36.461Z,100770
2017-10-20T01:52:03.512Z,100771
2017-10-20T01:54:30.560Z,100767
2017-10-20T01:56:57.833Z,100759
2017-10-20T01:59:24.158Z,100752
2017-10-20T02:01:50.474Z,100753
2017-10-20T02:04:17.511Z,100747
2017-10-20T02:06:44.573Z,100740
2017-10-20T02:09:11.117Z,100740
2017-10-20T02:11:37.413Z,100741
2017-10-20T02:14:03.688Z,100738
2017-10-20T02:16:30.039Z,100729
2017-10-20T02:18:56.349Z,100733
2017-10-20T02:21:22.629Z,100740
2017-10-20T02:23:49.110Z,100738
2017-10-20T02:26:15.418Z,100741
2017-10-20T02:28:41.713Z,100741
2017-10-20T02:31:08.070Z,100738
2017-10-20T02:33:35.091Z,100740
2017-10-20T02:36:01.395Z,100737
2017-10-20T02:38:27.714Z,100736
2017-10-20T02:40:54.017Z,100731
2017-10-20T02:43:20.289Z,100731
2017-10-20T02:45:46.794Z,100730
2017-10-20T02:48:13.093Z,100736
2017-10-20T02:50:40.152Z,100730
2017-10-20T02:53:07.258Z,100735
2017-10-20T02:55:33.558Z,100732
2017-10-20T02:57:59.854Z,100735
2017-10-20T03:00:26.501Z,100732
2017-10-20T03:02:52.793Z,100728
2017-10-20T03:05:19.111Z,100728
2017-10-20T03:07:45.476Z,100728
2017-10-20T03:10:12.493Z,100728
2017-10-20T03:12:38.832Z,100719
2017-10-20T03:15:05.213Z,100723
2017-10-20T03:17:31.473Z,100717
2017-10-20T03:19:57.744Z,100722
2017-10-20T03:22:24.779Z,100719
2017-10-20T03:24:51.075Z,100722
2017-10-20T03:27:17.367Z,100722
2017-10-20T03:29:43.704Z,100722
2017-10-20T03:32:11.051Z,100718
2017-10-20T03:34:37.356Z,100713
2017-10-20T03:37:04.389Z,100717
2017-10-20T03:39:30.668Z,100717
2017-10-20T03:41:57.297Z,100715
2017-10-20T03:44:23.546Z,100720
2017-10-20T03:46:49.830Z,100714
2017-10-20T03:49:16.884Z,100712
2017-10-20T03:51:43.928Z,100710
2017-10-20T03:54:10.288Z,100711
2017-10-20T03:56:36.587Z,100707
2017-10-20T03:59:03.633Z,100708
2017-10-20T04:01:30.691Z,100701
2017-10-20T04:03:57.762Z,100708
2017-10-20T04:06:24.069Z,100707
2017-10-20T04:08:50.363Z,100717
2017-10-20T04:11:16.945Z,100716
2017-10-20T04:13:43.350Z,100711
2017-10-20T04:16:10.421Z,100708
2017-10-20T04:18:36.733Z,100713
2017-10-20T04:21:04.017Z,100714
2017-10-20T04:23:30.336Z,100721
2017-10-20T04:25:56.604Z,100719
2017-10-20T04:28:22.873Z,100715
2017-10-20T04:30:49.900Z,100707
2017-10-20T04:33:16.158Z,100705
2017-10-20T04:35:43.178Z,100695
2017-10-20T04:38:09.458Z,100694
2017-10-20T04:40:35.745Z,100697
2017-10-20T04:43:02.025Z,100700
2017-10-20T04:45:28.344Z,100699
2017-10-20T04:47:54.754Z,100702
2017-10-20T04:50:21.757Z,100696
2017-10-20T04:52:48.034Z,100690
2017-10-20T04:55:15.165Z,100696
2017-10-20T04:57:42.207Z,100697
2017-10-20T05:00:09.225Z,100691
2017-10-20T05:02:35.696Z,100691
2017-10-20T05:05:02.727Z,100683
2017-10-20T05:07:28.990Z,100684
2017-10-20T05:09:55.282Z,100686
2017-10-20T05:12:21.571Z,100688
2017-10-20T05:14:47.864Z,100684
2017-10-20T05:17:15.182Z,100684
2017-10-20T05:19:41.449Z,100684
2017-10-20T05:22:08.464Z,100689
2017-10-20T05:24:34.781Z,100690
2017-10-20T05:27:01.078Z,100682
2017-10-20T05:29:27.351Z,100675
2017-10-20T05:31:53.626Z,100675
2017-10-20T05:34:19.896Z,100671
2017-10-20T05:36:46.196Z,100677
2017-10-20T05:39:12.739Z,100675
2017-10-20T05:41:39.049Z,100673
2017-10-20T05:44:05.333Z,100678
2017-10-20T05:46:31.608Z,100676
2017-10-20T05:48:58.133Z,100676
2017-10-20T05:51:25.261Z,100676
2017-10-20T05:53:51.565Z,100680
2017-10-20T05:56:18.687Z,100684
2017-10-20T05:58:45.023Z,100681
2017-10-20T06:01:11.308Z,100672
2017-10-20T06:03:38.313Z,100664
2017-10-20T06:06:04.586Z,100656
2017-10-20T06:08:31.608Z,100658
2017-10-20T06:10:57.902Z,100659
2017-10-20T06:13:24.174Z,100665
2017-10-20T06:15:50.434Z,100665
2017-10-20T06:18:17.457Z,100663
2017-10-20T06:20:44.474Z,100662
2017-10-20T06:23:10.751Z,100660
2017-10-20T06:25:37.840Z,100659
2017-10-20T06:28:04.114Z,100664
2017-10-20T06:30:31.121Z,100668
2017-10-20T06:32:57.420Z,100656
2017-10-20T06:35:23.715Z,100656
2017-10-20T06:37:50.017Z,100657
2017-10-20T06:40:16.360Z,100656
2017-10-20T06:42:42.721Z,100657
2017-10-20T06:45:09.783Z,100650
2017-10-20T06:47:36.126Z,100651
2017-10-20T06:50:02.473Z,100656
2017-10-20T06:52:28.750Z,100659
2017-10-20T06:54:55.767Z,100659
2017-10-20T06:57:22.135Z,100657
2017-10-20T06:59:50.541Z,100660
2017-10-20T07:02:16.906Z,100644
2017-10-20T07:04:43.209Z,100634
2017-10-20T07:07:09.512Z,100627
2017-10-20T07:09:36.614Z,100638
2017-10-20T07:12:02.926Z,100643
2017-10-20T07:14:29.252Z,100643
2017-10-20T07:16:55.588Z,100645
2017-10-20T07:19:24.837Z,100654
2017-10-20T07:21:51.963Z,100649
2017-10-20T07:24:18.320Z,100655
2017-10-20T07:26:45.460Z,100659
2017-10-20T07:29:11.743Z,100659
2017-10-20T07:31:38.049Z,100661
2017-10-20T07:34:05.111Z,100658
2017-10-20T07:36:31.425Z,100658
2017-10-20T07:38:57.734Z,100657
2017-10-20T07:41:24.770Z,100659
2017-10-20T07:43:51.809Z,100659
2017-10-20T07:46:18.098Z,100662
2017-10-20T07:48:44.737Z,100656
2017-10-20T07:51:11.017Z,100660
2017-10-20T07:53:38.069Z,100661
2017-10-20T07:56:05.101Z,100653
2017-10-20T07:58:31.385Z,100653
2017-10-20T08:00:57.703Z,100654
2017-10-20T08:03:24.093Z,100658
2017-10-20T08:05:50.351Z,100661
2017-10-20T08:08:17.394Z,100657
2017-10-20T08:10:44.725Z,100659
2017-10-20T08:13:10.995Z,100658
2017-10-20T08:15:37.281Z,100661
2017-10-20T08:18:03.606Z,100659
2017-10-20T08:20:29.892Z,100668
2017-10-20T08:22:56.165Z,100671
2017-10-20T08:25:22.418Z,100679
2017-10-20T08:27:49.477Z,100683
2017-10-20T08:30:16.480Z,100693
2017-10-20T08:32:42.759Z,100691
2017-10-20T08:35:09.306Z,100680
2017-10-20T08:37:35.583Z,100679
2017-10-20T08:40:01.862Z,100690
2017-10-20T08:42:28.705Z,100680
2017-10-20T08:44:55.058Z,100693
2017-10-20T08:47:21.384Z,100692
2017-10-20T08:49:47.698Z,100693
2017-10-20T08:52:14.017Z,100701
2017-10-20T08:54:40.371Z,100700
2017-10-20T08:57:06.653Z,100703
2017-10-20T08:59:33.656Z,100700
2017-10-20T09:01:59.991Z,100695
2017-10-20T09:04:26.277Z,100698
2017-10-20T09:06:53.289Z,100703
2017-10-20T09:09:20.066Z,100704
2017-10-20T09:11:46.349Z,100711
2017-10-20T09:14:12.631Z,100715
2017-10-20T09:16:39.275Z,100716
2017-10-20T09:19:05.558Z,100719
2017-10-20T09:21:31.834Z,100725
2017-10-20T09:23:58.136Z,100737
2017-10-20T09:26:25.179Z,100747
2017-10-20T09:28:52.189Z,100745
2017-10-20T09:31:18.725Z,100737
2017-10-20T09:33:45.020Z,100746
2017-10-20T09:36:11.314Z,100746
2017-10-20T09:38:38.345Z,100740
2017-10-20T09:41:04.625Z,100751
2017-10-20T09:43:30.903Z,100745
2017-10-20T09:45:57.169Z,100732
2017-10-20T09:48:23.453Z,100757
2017-10-20T09:50:49.861Z,100761
2017-10-20T09:53:16.137Z,100749
2017-10-20T09:55:43.147Z,100744
2017-10-20T09:58:09.440Z,100753
2017-10-20T10:00:35.717Z,100759
2017-10-20T10:03:01.989Z,100763
2017-10-20T10:05:28.325Z,100761
2017-10-20T10:07:54.653Z,100759
2017-10-20T10:10:21.015Z,100757
2017-10-20T10:12:47.357Z,100766
2017-10-20T10:15:13.654Z,100766
2017-10-20T10:17:39.932Z,100765
2017-10-20T10:20:06.229Z,100764
2017-10-20T10:22:32.516Z,100765
2017-10-20T10:24:59.545Z,100770
2017-10-20T10:27:25.837Z,100780
2017-10-20T10:29:52.142Z,100775
2017-10-20T10:32:18.414Z,100775
2017-10-20T10:34:44.930Z,100772
2017-10-20T10:37:11.195Z,100768
2017-10-20T10:39:37.466Z,100767
2017-10-20T10:42:03.732Z,100761
2017-10-20T10:44:30.026Z,100766
2017-10-20T10:46:56.567Z,100761
2017-10-20T10:49:22.842Z,100765
2017-10-20T10:51:49.133Z,100763
2017-10-20T10:54:15.466Z,100761
2017-10-20T10:56:41.772Z,100769
2017-10-20T10:59:08.081Z,100760
2017-10-20T11:01:35.150Z,100778
2017-10-20T11:04:01.416Z,100771
2017-10-20T11:06:46.121Z,100769
2017-10-20T11:09:17.221Z,100759
2017-10-20T11:12:01.973Z,100748
2017-10-20T11:14:28.291Z,100745
2017-10-20T11:16:54.587Z,100738
2017-10-20T11:19:21.626Z,100747
2017-10-20T11:21:47.932Z,100753
2017-10-20T11:24:14.239Z,100742
2017-10-20T11:26:40.530Z,100728
2017-10-20T11:29:07.594Z,100721
2017-10-20T11:31:33.897Z,100712
2017-10-20T11:34:00.917Z,100709
2017-10-20T11:36:27.246Z,100699
2017-10-20T11:38:53.749Z,100708
2017-10-20T11:41:20.048Z,100719
2017-10-20T11:43:47.083Z,100719
2017-10-20T11:46:14.375Z,100713
2017-10-20T11:48:40.656Z,100701
2017-10-20T11:51:06.969Z,100698
2017-10-20T11:53:33.323Z,100690
2017-10-20T11:55:59.646Z,100686
2017-10-20T11:58:25.933Z,100654
2017-10-20T12:00:52.281Z,100645
2017-10-20T12:03:18.588Z,100633
2017-10-20T12:05:44.889Z,100634
2017-10-20T12:08:11.950Z,100651
2017-10-20T12:10:38.258Z,100653
2017-10-20T12:13:05.302Z,100650
2017-10-20T12:15:32.371Z,100649
2017-10-20T12:17:58.644Z,100651
2017-10-20T12:20:24.944Z,100637
2017-10-20T12:22:51.258Z,100637
2017-10-20T12:25:17.539Z,100634
2017-10-20T12:27:43.832Z,100623
2017-10-20T12:30:10.117Z,100614
2017-10-20T12:32:36.398Z,100613
2017-10-20T12:35:02.705Z,100615
2017-10-20T12:37:31.009Z,100618
2017-10-20T12:39:57.274Z,100617
2017-10-20T12:42:23.561Z,100617
2017-10-20T12:44:49.856Z,100618
2017-10-20T12:47:17.344Z,100614
2017-10-20T12:49:43.610Z,100613
2017-10-20T12:52:09.890Z,100607
2017-10-20T12:54:36.261Z,100607
2017-10-20T12:57:02.570Z,100601
2017-10-20T12:59:28.874Z,100609
2017-10-20T13:01:55.181Z,100609
2017-10-20T13:04:22.206Z,100603
2017-10-20T13:06:48.516Z,100607
2017-10-20T13:09:14.921Z,100614
2017-10-20T13:11:41.212Z,100619
2017-10-20T13:14:07.527Z,100623
2017-10-20T13:16:34.125Z,100621
2017-10-20T13:19:00.393Z,100630
2017-10-20T13:21:26.689Z,100622
2017-10-20T13:23:53.322Z,100624
2017-10-20T13:26:19.621Z,100622
2017-10-20T13:28:46.633Z,100622
2017-10-20T13:31:12.914Z,100623
2017-10-20T13:33:39.188Z,100622
2017-10-20T13:36:05.493Z,100614
2017-10-20T13:38:31.774Z,100607
2017-10-20T13:40:59.070Z,100581
2017-10-20T13:43:25.355Z,100563
2017-10-20T13:45:51.638Z,100558
2017-10-20T13:48:17.957Z,100549
2017-10-20T13:50:44.269Z,100529
2017-10-20T13:53:10.578Z,100558
2017-10-20T13:55:37.614Z,100561
2017-10-20T13:58:03.914Z,100572
2017-10-20T14:00:30.345Z,100596
2017-10-20T14:02:56.610Z,100616
2017-10-20T14:05:22.885Z,100617
2017-10-20T14:07:49.421Z,100612
2017-10-20T14:10:15.711Z,100606
2017-10-20T14:12:42.730Z,100607
2017-10-20T14:15:09.050Z,100603
2017-10-20T14:17:35.334Z,100608
2017-10-20T14:20:02.495Z,100603
2017-10-20T14:22:28.797Z,100598
2017-10-20T14:24:55.809Z,100588
2017-10-20T14:27:22.108Z,100582
2017-10-20T14:29:48.438Z,100581
2017-10-20T14:32:14.741Z,100585
2017-10-20T14:34:41.757Z,100573
2017-10-20T14:37:08.812Z,100573
2017-10-20T14:39:35.113Z,100574
2017-10-20T14:42:01.427Z,100573
2017-10-20T14:44:27.697Z,100569
2017-10-20T14:46:53.965Z,100591
2017-10-20T14:49:20.578Z,100606
2017-10-20T14:51:47.614Z,100594
2017-10-20T14:54:13.906Z,100590
2017-10-20T14:56:40.218Z,100602
2017-10-20T14:59:06.501Z,100608
2017-10-20T15:01:32.800Z,100614
2017-10-20T15:03:59.094Z,100626
2017-10-20T15:06:26.130Z,100626
2017-10-20T15:08:53.161Z,100628
2017-10-20T15:11:19.465Z,100615
2017-10-20T15:13:45.725Z,100611
2017-10-20T15:16:12.759Z,100616
2017-10-20T15:18:39.055Z,100605
2017-10-20T15:21:07.212Z,100605
2017-10-20T15:23:33.615Z,100601
2017-10-20T15:26:01.035Z,100606
2017-10-20T15:28:32.006Z,100600
2017-10-20T15:31:01.679Z,100607
2017-10-20T15:33:32.689Z,100605
2017-10-20T15:35:59.097Z,100613
2017-10-20T15:38:32.547Z,100614
2017-10-20T15:41:00.396Z,100617
2017-10-20T15:43:40.675Z,100615
2017-10-20T15:46:08.098Z,100628
2017-10-20T15:48:34.478Z,100636
2017-10-20T15:51:13.815Z,100637
2017-10-20T15:53:41.234Z,100630
2017-10-20T15:56:12.390Z,100626
2017-10-20T15:58:38.890Z,100628
2017-10-20T16:01:14.913Z,100631
2017-10-20T16:03:43.826Z,100642
2017-10-20T16:06:10.232Z,100644
2017-10-20T16:08:37.635Z,100643
2017-10-20T16:11:06.116Z,100646
2017-10-20T16:13:35.336Z,100651
2017-10-20T16:16:01.744Z,100646
2017-10-20T16:18:28.114Z,100652
2017-10-20T16:20:55.108Z,100656
2017-10-20T16:23:21.591Z,100654
2017-10-20T16:25:48.990Z,100659
2017-10-20T16:28:18.180Z,100659
2017-10-20T16:30:46.691Z,100663
2017-10-20T16:35:53.014Z,100668
2017-10-20T16:38:29.114Z,100672
2017-10-20T16:40:55.795Z,100677
2017-10-20T16:43:23.174Z,100677
2017-10-20T16:45:50.264Z,100678
2017-10-20T16:48:17.578Z,100684
2017-10-20T16:50:47.536Z,100681
2017-10-20T16:53:42.745Z,100679
2017-10-20T16:56:10.115Z,100681
2017-10-20T16:58:37.278Z,100681
2017-10-20T17:01:18.480Z,100680
2017-10-20T17:06:55.288Z,100680
2017-10-20T17:09:29.546Z,100682
2017-10-20T17:11:58.254Z,100684
2017-10-20T17:14:25.301Z,100686
2017-10-20T17:16:57.961Z,100693
2017-10-20T17:19:25.437Z,100692
2017-10-20T17:21:58.590Z,100690
2017-10-20T17:24:29.191Z,100693
2017-10-20T17:27:02.716Z,100698
2017-10-20T17:29:53.974Z,100702
2017-10-20T17:32:22.950Z,100707
2017-10-20T17:35:03.558Z,100707
2017-10-20T17:43:02.724Z,100710
2017-10-20T17:59:33.463Z,100725
2017-10-20T18:02:04.615Z,100725
2017-10-20T18:04:32.124Z,100728
2017-10-20T18:07:10.336Z,100726
2017-10-20T18:09:44.123Z,100730
2017-10-20T18:12:22.283Z,100732
2017-10-20T18:14:57.408Z,100733
2017-10-20T18:17:31.509Z,100736
2017-10-20T18:22:47.618Z,100739
2017-10-20T18:25:32.764Z,100741
2017-10-20T18:28:11.192Z,100739
2017-10-20T18:30:44.614Z,100738
2017-10-20T18:33:19.307Z,100739
2017-10-20T18:38:32.670Z,100746
2017-10-20T18:41:03.775Z,100746
2017-10-20T18:43:32.501Z,100750
2017-10-20T18:46:08.978Z,100758
2017-10-20T18:51:26.023Z,100762
2017-10-20T18:53:55.068Z,100765
2017-10-20T18:56:26.899Z,100769
2017-10-20T18:58:54.994Z,100768
2017-10-20T19:01:28.418Z,100768
2017-10-20T19:04:04.926Z,100772
2017-10-20T19:12:30.025Z,100779
2017-10-20T19:15:16.252Z,100780
2017-10-20T19:17:48.165Z,100783
2017-10-20T19:20:19.529Z,100779
2017-10-20T19:22:52.490Z,100776
2017-10-20T19:28:12.866Z,100786
2017-10-20T19:30:45.156Z,100787
2017-10-20T19:33:17.736Z,100795
2017-10-20T19:35:46.068Z,100791
2017-10-20T19:38:14.195Z,100797
2017-10-20T19:40:42.626Z,100801
2017-10-20T19:43:09.346Z,100799
2017-10-20T19:45:40.399Z,100800
2017-10-20T19:48:06.811Z,100799
2017-10-20T19:50:34.034Z,100802
2017-10-20T19:53:00.434Z,100802
2017-10-20T19:55:28.208Z,100799
2017-10-20T19:57:57.674Z,100801
2017-10-20T20:00:26.766Z,100801
2017-10-20T20:02:54.163Z,100800
2017-10-20T20:05:25.159Z,100799
2017-10-20T20:07:56.050Z,100802
2017-10-20T20:10:30.592Z,100805
2017-10-20T20:13:02.352Z,100801
2017-10-20T20:15:34.250Z,100802
2017-10-20T20:18:07.071Z,100803
2017-10-20T20:23:14.689Z,100808
2017-10-20T20:25:50.145Z,100808
2017-10-20T20:28:31.219Z,100812
2017-10-20T20:31:02.957Z,100809
2017-10-20T20:33:46.898Z,100809
2017-10-20T20:36:23.283Z,100806
2017-10-20T20:38:50.496Z,100807
2017-10-20T20:41:17.629Z,100812
2017-10-20T20:43:44.064Z,100812
2017-10-20T20:46:17.989Z,100807
2017-10-20T20:48:48.995Z,100815
2017-10-20T20:51:17.186Z,100810
2017-10-20T20:53:45.591Z,100811
2017-10-20T20:56:12.073Z,100807
2017-10-20T20:58:49.089Z,100811
2017-10-20T21:01:21.175Z,100810
2017-10-20T21:03:48.862Z,100811
2017-10-20T21:06:17.409Z,100810
2017-10-20T21:08:45.699Z,100813
2017-10-20T21:11:15.132Z,100814
2017-10-20T21:13:44.598Z,100813
2017-10-20T21:16:14.363Z,100813
2017-10-20T21:18:46.725Z,100816
2017-10-20T21:21:13.337Z,100820
2017-10-20T21:23:41.443Z,100819
2017-10-20T21:26:10.752Z,100817
2017-10-20T21:28:40.222Z,100814
2017-10-20T21:31:08.519Z,100810
2017-10-20T21:33:36.502Z,100813
2017-10-20T21:36:03.965Z,100812
2017-10-20T21:38:34.293Z,100814
2017-10-20T21:41:02.719Z,100815
2017-10-20T21:43:29.234Z,100815
2017-10-20T21:45:55.795Z,100812
2017-10-20T21:48:22.760Z,100813
2017-10-20T21:50:50.975Z,100810
2017-10-20T21:53:25.523Z,100816
2017-10-20T21:55:52.094Z,100812
2017-10-20T21:58:18.627Z,100814
2017-10-20T22:00:45.900Z,100815
2017-10-20T22:03:12.556Z,100813
2017-10-20T22:08:15.264Z,100809
2017-10-20T22:10:41.990Z,100813
2017-10-20T22:13:08.610Z,100815
2017-10-20T22:15:35.161Z,100816
2017-10-20T22:18:05.784Z,100811
2017-10-20T22:20:34.421Z,100816
2017-10-20T22:23:30.432Z,100815
2017-10-20T22:26:01.758Z,100824
2017-10-20T22:28:32.920Z,100823
2017-10-20T22:31:14.524Z,100823
2017-10-20T22:33:48.075Z,100822
2017-10-20T22:36:22.988Z,100825
2017-10-20T22:38:56.606Z,100828
2017-10-20T22:41:30.047Z,100830
2017-10-20T22:44:01.848Z,100838
2017-10-20T22:46:33.955Z,100832
2017-10-20T22:49:12.717Z,100833
2017-10-20T22:56:57.279Z,100833
2017-10-20T22:59:31.791Z,100837
2017-10-20T23:02:08.301Z,100837
2017-10-20T23:04:36.545Z,100840
2017-10-20T23:07:07.178Z,100842
2017-10-20T23:09:55.063Z,100838
2017-10-20T23:12:30.552Z,100841
2017-10-20T23:15:03.875Z,100841
2017-10-20T23:17:32.999Z,100842
2017-10-20T23:20:04.055Z,100842
2017-10-20T23:22:37.521Z,100841
2017-10-20T23:25:04.174Z,100840
2017-10-20T23:27:36.026Z,100840
2017-10-20T23:30:09.657Z,100839
2017-10-20T23:32:45.705Z,100839
2017-10-20T23:35:16.682Z,100840
2017-10-20T23:37:43.135Z,100842
2017-10-20T23:40:21.460Z,100838
2017-10-20T23:42:57.451Z,100840
2017-10-20T23:45:23.887Z,100834
2017-10-20T23:47:53.935Z,100834
2017-10-20T23:50:21.376Z,100834
2017-10-20T23:52:49.778Z,100834
2017-10-20T23:55:22.496Z,100838
2017-10-20T23:57:50.611Z,100838
